sensor_id;sensor_type;location;lat;lon;timestamp;temperature;humidity
70475;DHT22;57944;48.722;9.316;2023-01-28T00:01:33;0.60;99.90
70475;DHT22;57944;48.722;9.316;2023-01-28T00:04:04;0.60;99.90
70475;DHT22;57944;48.722;9.316;2023-01-28T00:06:36;0.70;99.90
70475;DHT22;57944;48.722;9.316;2023-01-28T00:09:07;0.80;99.90
70475;DHT22;57944;48.722;9.316;2023-01-28T00:11:37;0.90;99.90
70475;DHT22;57944;48.722;9.316;2023-01-28T00:14:10;0.70;99.90
70475;DHT22;57944;48.722;9.316;2023-01-28T00:16:40;0.80;99.90
70475;DHT22;57944;48.722;9.316;2023-01-28T00:19:10;0.80;99.90
70475;DHT22;57944;48.722;9.316;2023-01-28T00:21:43;0.70;99.90
70475;DHT22;57944;48.722;9.316;2023-01-28T00:24:13;0.50;99.90
70475;DHT22;57944;48.722;9.316;2023-01-28T00:26:43;0.40;99.90
70475;DHT22;57944;48.722;9.316;2023-01-28T00:29:14;0.50;99.90
70475;DHT22;57944;48.722;9.316;2023-01-28T00:31:44;0.50;99.90
70475;DHT22;57944;48.722;9.316;2023-01-28T00:34:15;0.40;99.90
70475;DHT22;57944;48.722;9.316;2023-01-28T00:36:48;0.50;99.90
70475;DHT22;57944;48.722;9.316;2023-01-28T00:39:24;0.40;99.90
70475;DHT22;57944;48.722;9.316;2023-01-28T00:41:55;0.50;99.90
70475;DHT22;57944;48.722;9.316;2023-01-28T00:44:25;0.50;99.90
70475;DHT22;57944;48.722;9.316;2023-01-28T00:46:55;0.60;99.90
70475;DHT22;57944;48.722;9.316;2023-01-28T00:49:27;0.60;99.90
70475;DHT22;57944;48.722;9.316;2023-01-28T00:52:00;0.50;99.90
70475;DHT22;57944;48.722;9.316;2023-01-28T00:54:30;0.50;99.90
70475;DHT22;57944;48.722;9.316;2023-01-28T00:57:02;0.60;99.90
70475;DHT22;57944;48.722;9.316;2023-01-28T00:59:34;0.60;99.90
70475;DHT22;57944;48.722;9.316;2023-01-28T01:02:04;0.60;99.90
70475;DHT22;57944;48.722;9.316;2023-01-28T01:04:41;0.50;99.90
70475;DHT22;57944;48.722;9.316;2023-01-28T01:07:27;0.50;99.90
70475;DHT22;57944;48.722;9.316;2023-01-28T01:10:09;0.50;99.90
70475;DHT22;57944;48.722;9.316;2023-01-28T01:12:42;0.50;99.90
70475;DHT22;57944;48.722;9.316;2023-01-28T01:15:16;0.60;99.90
70475;DHT22;57944;48.722;9.316;2023-01-28T01:17:48;0.70;99.90
70475;DHT22;57944;48.722;9.316;2023-01-28T01:20:21;0.60;99.90
70475;DHT22;57944;48.722;9.316;2023-01-28T01:22:56;0.70;99.90
70475;DHT22;57944;48.722;9.316;2023-01-28T01:25:26;0.60;99.90
70475;DHT22;57944;48.722;9.316;2023-01-28T01:27:56;0.70;99.90
70475;DHT22;57944;48.722;9.316;2023-01-28T01:30:27;0.60;99.90
70475;DHT22;57944;48.722;9.316;2023-01-28T01:32:57;0.60;99.90
70475;DHT22;57944;48.722;9.316;2023-01-28T01:35:28;0.60;99.90
70475;DHT22;57944;48.722;9.316;2023-01-28T01:38:01;0.50;99.90
70475;DHT22;57944;48.722;9.316;2023-01-28T01:40:31;0.40;99.90
70475;DHT22;57944;48.722;9.316;2023-01-28T01:43:17;0.50;99.90
70475;DHT22;57944;48.722;9.316;2023-01-28T01:45:53;0.50;99.90
70475;DHT22;57944;48.722;9.316;2023-01-28T01:48:29;0.50;99.90
70475;DHT22;57944;48.722;9.316;2023-01-28T01:51:05;0.50;99.90
70475;DHT22;57944;48.722;9.316;2023-01-28T01:53:44;0.60;99.90
70475;DHT22;57944;48.722;9.316;2023-01-28T01:56:21;0.60;99.90
70475;DHT22;57944;48.722;9.316;2023-01-28T01:58:57;0.50;99.90
70475;DHT22;57944;48.722;9.316;2023-01-28T02:01:30;0.40;99.90
70475;DHT22;57944;48.722;9.316;2023-01-28T02:04:04;0.50;99.90
70475;DHT22;57944;48.722;9.316;2023-01-28T02:06:39;0.40;99.90
70475;DHT22;57944;48.722;9.316;2023-01-28T02:09:25;0.50;99.90
70475;DHT22;57944;48.722;9.316;2023-01-28T02:11:59;0.40;99.90
70475;DHT22;57944;48.722;9.316;2023-01-28T02:14:35;0.60;99.90
70475;DHT22;57944;48.722;9.316;2023-01-28T02:17:11;0.60;99.90
70475;DHT22;57944;48.722;9.316;2023-01-28T02:19:47;0.70;99.90
70475;DHT22;57944;48.722;9.316;2023-01-28T02:29:15;0.70;99.90
70475;DHT22;57944;48.722;9.316;2023-01-28T02:31:59;0.60;99.90
70475;DHT22;57944;48.722;9.316;2023-01-28T02:34:40;0.80;99.90
70475;DHT22;57944;48.722;9.316;2023-01-28T02:37:18;0.90;99.90
70475;DHT22;57944;48.722;9.316;2023-01-28T02:39:56;0.90;99.90
70475;DHT22;57944;48.722;9.316;2023-01-28T02:42:32;0.90;99.90
70475;DHT22;57944;48.722;9.316;2023-01-28T02:45:15;0.90;99.90
70475;DHT22;57944;48.722;9.316;2023-01-28T02:47:49;0.90;99.90
70475;DHT22;57944;48.722;9.316;2023-01-28T02:50:31;0.90;99.90
70475;DHT22;57944;48.722;9.316;2023-01-28T02:53:17;0.90;99.90
70475;DHT22;57944;48.722;9.316;2023-01-28T02:56:13;0.90;99.90
70475;DHT22;57944;48.722;9.316;2023-01-28T02:58:58;1.10;99.90
70475;DHT22;57944;48.722;9.316;2023-01-28T03:02:01;1.00;99.90
70475;DHT22;57944;48.722;9.316;2023-01-28T03:04:42;0.90;99.90
70475;DHT22;57944;48.722;9.316;2023-01-28T03:07:18;0.90;99.90
70475;DHT22;57944;48.722;9.316;2023-01-28T03:09:50;0.80;99.90
70475;DHT22;57944;48.722;9.316;2023-01-28T03:12:27;0.80;99.90
70475;DHT22;57944;48.722;9.316;2023-01-28T03:15:14;0.70;99.90
70475;DHT22;57944;48.722;9.316;2023-01-28T03:18:05;0.70;99.90
70475;DHT22;57944;48.722;9.316;2023-01-28T03:20:56;0.70;99.90
70475;DHT22;57944;48.722;9.316;2023-01-28T03:23:49;0.70;99.90
70475;DHT22;57944;48.722;9.316;2023-01-28T03:26:42;0.70;99.90
70475;DHT22;57944;48.722;9.316;2023-01-28T03:29:31;0.80;99.90
70475;DHT22;57944;48.722;9.316;2023-01-28T03:32:19;0.90;99.90
70475;DHT22;57944;48.722;9.316;2023-01-28T03:35:09;0.80;99.90
70475;DHT22;57944;48.722;9.316;2023-01-28T03:37:55;0.80;99.90
70475;DHT22;57944;48.722;9.316;2023-01-28T03:40:27;0.70;99.90
70475;DHT22;57944;48.722;9.316;2023-01-28T03:42:58;0.80;99.90
70475;DHT22;57944;48.722;9.316;2023-01-28T03:45:32;0.70;99.90
70475;DHT22;57944;48.722;9.316;2023-01-28T03:48:04;0.90;99.90
70475;DHT22;57944;48.722;9.316;2023-01-28T03:50:38;0.90;99.90
70475;DHT22;57944;48.722;9.316;2023-01-28T03:53:08;0.70;99.90
70475;DHT22;57944;48.722;9.316;2023-01-28T03:55:51;0.80;99.90
70475;DHT22;57944;48.722;9.316;2023-01-28T03:58:23;0.80;99.90
70475;DHT22;57944;48.722;9.316;2023-01-28T04:01:13;0.80;99.90
70475;DHT22;57944;48.722;9.316;2023-01-28T04:03:44;0.70;99.90
70475;DHT22;57944;48.722;9.316;2023-01-28T04:06:21;0.70;99.90
70475;DHT22;57944;48.722;9.316;2023-01-28T04:09:18;0.80;99.90
70475;DHT22;57944;48.722;9.316;2023-01-28T04:12:01;0.60;99.90
70475;DHT22;57944;48.722;9.316;2023-01-28T04:14:37;0.60;99.90
70475;DHT22;57944;48.722;9.316;2023-01-28T04:17:12;0.70;99.90
70475;DHT22;57944;48.722;9.316;2023-01-28T04:19:44;0.70;99.90
70475;DHT22;57944;48.722;9.316;2023-01-28T04:22:19;0.70;99.90
70475;DHT22;57944;48.722;9.316;2023-01-28T04:24:50;0.70;99.90
70475;DHT22;57944;48.722;9.316;2023-01-28T04:27:20;0.60;99.90
70475;DHT22;57944;48.722;9.316;2023-01-28T04:29:50;0.70;99.90
70475;DHT22;57944;48.722;9.316;2023-01-28T04:32:45;0.70;99.90
70475;DHT22;57944;48.722;9.316;2023-01-28T04:35:24;0.80;99.90
70475;DHT22;57944;48.722;9.316;2023-01-28T04:38:04;0.90;99.90
70475;DHT22;57944;48.722;9.316;2023-01-28T04:40:48;1.00;99.90
70475;DHT22;57944;48.722;9.316;2023-01-28T04:43:29;0.90;99.90
70475;DHT22;57944;48.722;9.316;2023-01-28T04:46:18;0.90;99.90
70475;DHT22;57944;48.722;9.316;2023-01-28T04:49:01;0.90;99.90
70475;DHT22;57944;48.722;9.316;2023-01-28T04:51:49;0.90;99.90
70475;DHT22;57944;48.722;9.316;2023-01-28T04:54:33;0.90;99.90
70475;DHT22;57944;48.722;9.316;2023-01-28T04:57:05;0.80;99.90
70475;DHT22;57944;48.722;9.316;2023-01-28T04:59:36;0.70;99.90
70475;DHT22;57944;48.722;9.316;2023-01-28T05:02:06;0.80;99.90
70475;DHT22;57944;48.722;9.316;2023-01-28T05:04:37;0.90;99.90
70475;DHT22;57944;48.722;9.316;2023-01-28T05:07:11;1.00;99.90
70475;DHT22;57944;48.722;9.316;2023-01-28T05:09:44;0.90;99.90
70475;DHT22;57944;48.722;9.316;2023-01-28T05:12:14;0.80;99.90
70475;DHT22;57944;48.722;9.316;2023-01-28T05:14:47;0.70;99.90
70475;DHT22;57944;48.722;9.316;2023-01-28T05:17:19;0.70;99.90
70475;DHT22;57944;48.722;9.316;2023-01-28T05:19:50;0.60;99.90
70475;DHT22;57944;48.722;9.316;2023-01-28T05:22:23;0.50;99.90
70475;DHT22;57944;48.722;9.316;2023-01-28T05:25:15;0.60;99.90
70475;DHT22;57944;48.722;9.316;2023-01-28T05:27:48;0.60;99.90
70475;DHT22;57944;48.722;9.316;2023-01-28T05:30:20;0.60;99.90
70475;DHT22;57944;48.722;9.316;2023-01-28T05:32:54;0.60;99.90
70475;DHT22;57944;48.722;9.316;2023-01-28T05:35:25;0.70;99.90
70475;DHT22;57944;48.722;9.316;2023-01-28T05:37:56;0.80;99.90
70475;DHT22;57944;48.722;9.316;2023-01-28T05:40:28;1.00;99.90
70475;DHT22;57944;48.722;9.316;2023-01-28T05:42:59;1.10;99.90
70475;DHT22;57944;48.722;9.316;2023-01-28T05:45:37;1.20;99.90
70475;DHT22;57944;48.722;9.316;2023-01-28T05:48:21;0.90;99.90
70475;DHT22;57944;48.722;9.316;2023-01-28T05:51:13;0.90;99.90
70475;DHT22;57944;48.722;9.316;2023-01-28T05:53:51;1.00;99.90
70475;DHT22;57944;48.722;9.316;2023-01-28T05:56:24;1.00;99.90
70475;DHT22;57944;48.722;9.316;2023-01-28T05:58:55;0.80;99.90
70475;DHT22;57944;48.722;9.316;2023-01-28T06:01:25;1.00;99.90
70475;DHT22;57944;48.722;9.316;2023-01-28T06:03:56;1.10;99.90
70475;DHT22;57944;48.722;9.316;2023-01-28T06:06:28;1.00;99.90
70475;DHT22;57944;48.722;9.316;2023-01-28T06:08:59;1.00;99.90
70475;DHT22;57944;48.722;9.316;2023-01-28T06:11:33;0.80;99.90
70475;DHT22;57944;48.722;9.316;2023-01-28T06:14:04;0.90;99.90
70475;DHT22;57944;48.722;9.316;2023-01-28T06:16:50;0.80;99.90
70475;DHT22;57944;48.722;9.316;2023-01-28T06:19:25;0.70;99.90
70475;DHT22;57944;48.722;9.316;2023-01-28T06:21:56;0.90;99.90
70475;DHT22;57944;48.722;9.316;2023-01-28T06:24:26;0.90;99.90
70475;DHT22;57944;48.722;9.316;2023-01-28T06:26:59;1.00;99.90
70475;DHT22;57944;48.722;9.316;2023-01-28T06:29:29;0.80;99.90
70475;DHT22;57944;48.722;9.316;2023-01-28T06:31:59;0.80;99.90
70475;DHT22;57944;48.722;9.316;2023-01-28T06:34:30;0.70;99.90
70475;DHT22;57944;48.722;9.316;2023-01-28T06:37:02;0.70;99.90
70475;DHT22;57944;48.722;9.316;2023-01-28T06:39:32;0.60;99.90
70475;DHT22;57944;48.722;9.316;2023-01-28T06:42:05;0.60;99.90
70475;DHT22;57944;48.722;9.316;2023-01-28T06:44:35;0.60;99.90
70475;DHT22;57944;48.722;9.316;2023-01-28T06:47:06;0.60;99.90
70475;DHT22;57944;48.722;9.316;2023-01-28T06:49:36;0.80;99.90
70475;DHT22;57944;48.722;9.316;2023-01-28T06:52:06;0.80;99.90
70475;DHT22;57944;48.722;9.316;2023-01-28T06:54:37;0.60;99.90
70475;DHT22;57944;48.722;9.316;2023-01-28T06:57:09;0.70;99.90
70475;DHT22;57944;48.722;9.316;2023-01-28T06:59:40;0.60;99.90
70475;DHT22;57944;48.722;9.316;2023-01-28T07:02:11;0.60;99.90
70475;DHT22;57944;48.722;9.316;2023-01-28T07:04:41;0.60;99.90
70475;DHT22;57944;48.722;9.316;2023-01-28T07:07:11;0.60;99.90
70475;DHT22;57944;48.722;9.316;2023-01-28T07:09:42;0.70;99.90
70475;DHT22;57944;48.722;9.316;2023-01-28T07:12:15;0.70;99.90
70475;DHT22;57944;48.722;9.316;2023-01-28T07:14:45;0.80;99.90
70475;DHT22;57944;48.722;9.316;2023-01-28T07:17:15;0.80;99.90
70475;DHT22;57944;48.722;9.316;2023-01-28T07:19:46;0.70;99.90
70475;DHT22;57944;48.722;9.316;2023-01-28T07:22:16;0.70;99.90
70475;DHT22;57944;48.722;9.316;2023-01-28T07:24:46;0.80;99.90
70475;DHT22;57944;48.722;9.316;2023-01-28T07:27:20;0.90;99.90
70475;DHT22;57944;48.722;9.316;2023-01-28T07:29:53;0.90;99.90
70475;DHT22;57944;48.722;9.316;2023-01-28T07:32:27;1.00;99.90
70475;DHT22;57944;48.722;9.316;2023-01-28T07:34:58;1.00;99.90
70475;DHT22;57944;48.722;9.316;2023-01-28T07:37:30;1.10;99.90
70475;DHT22;57944;48.722;9.316;2023-01-28T07:40:28;1.10;99.90
70475;DHT22;57944;48.722;9.316;2023-01-28T07:43:02;1.40;99.90
70475;DHT22;57944;48.722;9.316;2023-01-28T07:45:37;1.30;99.90
70475;DHT22;57944;48.722;9.316;2023-01-28T07:48:11;1.40;99.90
70475;DHT22;57944;48.722;9.316;2023-01-28T07:50:45;1.40;99.90
70475;DHT22;57944;48.722;9.316;2023-01-28T07:53:17;1.40;99.90
70475;DHT22;57944;48.722;9.316;2023-01-28T07:55:57;1.50;99.90
70475;DHT22;57944;48.722;9.316;2023-01-28T07:58:33;1.70;99.90
70475;DHT22;57944;48.722;9.316;2023-01-28T08:01:05;1.80;99.90
70475;DHT22;57944;48.722;9.316;2023-01-28T08:03:35;1.80;99.90
70475;DHT22;57944;48.722;9.316;2023-01-28T08:06:07;1.80;99.90
70475;DHT22;57944;48.722;9.316;2023-01-28T08:08:40;1.70;99.90
70475;DHT22;57944;48.722;9.316;2023-01-28T08:11:10;1.80;99.90
70475;DHT22;57944;48.722;9.316;2023-01-28T08:13:43;1.80;99.90
70475;DHT22;57944;48.722;9.316;2023-01-28T08:16:14;1.80;99.90
70475;DHT22;57944;48.722;9.316;2023-01-28T08:18:44;1.70;99.90
70475;DHT22;57944;48.722;9.316;2023-01-28T08:21:15;1.80;99.90
70475;DHT22;57944;48.722;9.316;2023-01-28T08:23:45;1.90;99.90
70475;DHT22;57944;48.722;9.316;2023-01-28T08:26:16;1.80;99.90
70475;DHT22;57944;48.722;9.316;2023-01-28T08:28:49;1.80;99.90
70475;DHT22;57944;48.722;9.316;2023-01-28T08:31:21;1.80;99.90
70475;DHT22;57944;48.722;9.316;2023-01-28T08:33:51;1.90;99.90
70475;DHT22;57944;48.722;9.316;2023-01-28T08:36:28;2.00;99.90
70475;DHT22;57944;48.722;9.316;2023-01-28T08:38:59;2.00;99.90
70475;DHT22;57944;48.722;9.316;2023-01-28T08:41:29;1.90;99.90
70475;DHT22;57944;48.722;9.316;2023-01-28T08:44:02;1.90;99.90
70475;DHT22;57944;48.722;9.316;2023-01-28T08:46:33;1.90;99.90
70475;DHT22;57944;48.722;9.316;2023-01-28T08:49:03;2.00;99.90
70475;DHT22;57944;48.722;9.316;2023-01-28T08:51:33;2.00;99.90
70475;DHT22;57944;48.722;9.316;2023-01-28T08:54:03;2.10;99.90
70475;DHT22;57944;48.722;9.316;2023-01-28T08:56:34;2.30;99.90
70475;DHT22;57944;48.722;9.316;2023-01-28T08:59:07;2.30;99.90
70475;DHT22;57944;48.722;9.316;2023-01-28T09:01:37;2.50;99.90
70475;DHT22;57944;48.722;9.316;2023-01-28T09:04:08;2.70;99.90
70475;DHT22;57944;48.722;9.316;2023-01-28T09:06:39;2.80;99.90
70475;DHT22;57944;48.722;9.316;2023-01-28T09:09:10;3.00;99.90
70475;DHT22;57944;48.722;9.316;2023-01-28T09:11:40;3.20;99.90
70475;DHT22;57944;48.722;9.316;2023-01-28T09:14:14;3.30;99.90
70475;DHT22;57944;48.722;9.316;2023-01-28T09:16:44;3.30;99.90
70475;DHT22;57944;48.722;9.316;2023-01-28T09:19:15;3.40;99.90
70475;DHT22;57944;48.722;9.316;2023-01-28T09:21:45;3.50;99.90
70475;DHT22;57944;48.722;9.316;2023-01-28T09:24:15;3.70;99.90
70475;DHT22;57944;48.722;9.316;2023-01-28T09:26:47;3.80;99.90
70475;DHT22;57944;48.722;9.316;2023-01-28T09:29:21;3.90;99.90
70475;DHT22;57944;48.722;9.316;2023-01-28T09:31:51;4.10;99.90
70475;DHT22;57944;48.722;9.316;2023-01-28T09:34:21;4.10;99.90
70475;DHT22;57944;48.722;9.316;2023-01-28T09:36:52;4.10;99.90
70475;DHT22;57944;48.722;9.316;2023-01-28T09:39:22;4.20;99.90
70475;DHT22;57944;48.722;9.316;2023-01-28T09:42:12;4.30;99.90
70475;DHT22;57944;48.722;9.316;2023-01-28T09:45:01;4.30;99.90
70475;DHT22;57944;48.722;9.316;2023-01-28T09:47:44;4.30;99.90
70475;DHT22;57944;48.722;9.316;2023-01-28T09:50:24;4.40;99.90
70475;DHT22;57944;48.722;9.316;2023-01-28T09:53:03;4.30;99.90
70475;DHT22;57944;48.722;9.316;2023-01-28T09:55:38;4.10;99.90
70475;DHT22;57944;48.722;9.316;2023-01-28T09:58:14;4.10;99.90
70475;DHT22;57944;48.722;9.316;2023-01-28T10:00:53;3.90;99.90
70475;DHT22;57944;48.722;9.316;2023-01-28T10:03:37;4.10;99.90
70475;DHT22;57944;48.722;9.316;2023-01-28T10:06:25;4.50;99.90
70475;DHT22;57944;48.722;9.316;2023-01-28T10:09:17;4.40;99.90
70475;DHT22;57944;48.722;9.316;2023-01-28T10:12:03;4.20;99.90
70475;DHT22;57944;48.722;9.316;2023-01-28T10:14:57;4.10;99.90
70475;DHT22;57944;48.722;9.316;2023-01-28T10:17:44;3.90;99.90
70475;DHT22;57944;48.722;9.316;2023-01-28T10:20:28;3.50;99.90
70475;DHT22;57944;48.722;9.316;2023-01-28T10:23:06;3.20;99.90
70475;DHT22;57944;48.722;9.316;2023-01-28T10:25:44;3.00;99.90
70475;DHT22;57944;48.722;9.316;2023-01-28T10:28:22;3.10;99.90
70475;DHT22;57944;48.722;9.316;2023-01-28T10:30:54;3.10;99.90
70475;DHT22;57944;48.722;9.316;2023-01-28T10:33:32;3.30;99.90
70475;DHT22;57944;48.722;9.316;2023-01-28T10:36:07;3.40;99.90
70475;DHT22;57944;48.722;9.316;2023-01-28T10:38:38;3.50;99.90
70475;DHT22;57944;48.722;9.316;2023-01-28T10:41:10;3.50;99.90
70475;DHT22;57944;48.722;9.316;2023-01-28T10:43:46;3.40;99.90
70475;DHT22;57944;48.722;9.316;2023-01-28T10:46:21;3.50;99.90
70475;DHT22;57944;48.722;9.316;2023-01-28T10:49:05;3.50;99.90
70475;DHT22;57944;48.722;9.316;2023-01-28T10:51:43;3.40;99.90
70475;DHT22;57944;48.722;9.316;2023-01-28T10:54:18;3.40;99.90
70475;DHT22;57944;48.722;9.316;2023-01-28T10:56:53;3.20;99.90
70475;DHT22;57944;48.722;9.316;2023-01-28T10:59:30;3.10;99.90
70475;DHT22;57944;48.722;9.316;2023-01-28T11:02:04;3.20;99.90
70475;DHT22;57944;48.722;9.316;2023-01-28T11:05:04;3.30;99.90
70475;DHT22;57944;48.722;9.316;2023-01-28T11:07:36;3.40;99.90
70475;DHT22;57944;48.722;9.316;2023-01-28T11:10:24;3.50;99.90
70475;DHT22;57944;48.722;9.316;2023-01-28T11:13:00;3.50;99.90
70475;DHT22;57944;48.722;9.316;2023-01-28T11:15:35;3.40;99.90
70475;DHT22;57944;48.722;9.316;2023-01-28T11:18:17;3.50;99.90
70475;DHT22;57944;48.722;9.316;2023-01-28T11:20:56;3.60;99.90
70475;DHT22;57944;48.722;9.316;2023-01-28T11:23:31;3.80;99.90
70475;DHT22;57944;48.722;9.316;2023-01-28T11:26:07;3.80;99.90
70475;DHT22;57944;48.722;9.316;2023-01-28T11:28:44;3.80;99.90
70475;DHT22;57944;48.722;9.316;2023-01-28T11:31:16;4.10;99.90
70475;DHT22;57944;48.722;9.316;2023-01-28T11:33:50;4.00;99.90
70475;DHT22;57944;48.722;9.316;2023-01-28T11:36:27;3.90;99.90
70475;DHT22;57944;48.722;9.316;2023-01-28T11:39:00;3.80;99.90
70475;DHT22;57944;48.722;9.316;2023-01-28T11:41:34;3.80;99.90
70475;DHT22;57944;48.722;9.316;2023-01-28T11:44:14;3.90;99.90
70475;DHT22;57944;48.722;9.316;2023-01-28T11:47:09;4.00;99.90
70475;DHT22;57944;48.722;9.316;2023-01-28T11:50:00;4.40;99.90
70475;DHT22;57944;48.722;9.316;2023-01-28T11:52:57;4.10;99.90
70475;DHT22;57944;48.722;9.316;2023-01-28T11:55:44;3.90;99.90
70475;DHT22;57944;48.722;9.316;2023-01-28T11:58:30;3.90;99.90
70475;DHT22;57944;48.722;9.316;2023-01-28T12:01:13;3.70;99.90
70475;DHT22;57944;48.722;9.316;2023-01-28T12:04:11;3.70;99.90
70475;DHT22;57944;48.722;9.316;2023-01-28T12:06:59;3.50;99.90
70475;DHT22;57944;48.722;9.316;2023-01-28T12:09:50;3.20;99.90
70475;DHT22;57944;48.722;9.316;2023-01-28T12:12:50;3.10;99.90
70475;DHT22;57944;48.722;9.316;2023-01-28T12:16:00;2.90;99.90
70475;DHT22;57944;48.722;9.316;2023-01-28T12:19:04;2.90;99.90
70475;DHT22;57944;48.722;9.316;2023-01-28T12:21:52;2.80;99.90
70475;DHT22;57944;48.722;9.316;2023-01-28T12:24:58;2.90;99.90
70475;DHT22;57944;48.722;9.316;2023-01-28T12:27:47;3.00;99.90
70475;DHT22;57944;48.722;9.316;2023-01-28T12:30:55;3.00;99.90
70475;DHT22;57944;48.722;9.316;2023-01-28T12:33:54;2.80;99.90
70475;DHT22;57944;48.722;9.316;2023-01-28T12:36:46;2.90;99.90
70475;DHT22;57944;48.722;9.316;2023-01-28T12:39:29;2.90;99.90
70475;DHT22;57944;48.722;9.316;2023-01-28T12:42:15;2.80;99.90
70475;DHT22;57944;48.722;9.316;2023-01-28T12:44:55;2.80;99.90
70475;DHT22;57944;48.722;9.316;2023-01-28T12:47:34;2.90;99.90
70475;DHT22;57944;48.722;9.316;2023-01-28T12:50:14;2.80;99.90
70475;DHT22;57944;48.722;9.316;2023-01-28T12:52:52;2.90;99.90
70475;DHT22;57944;48.722;9.316;2023-01-28T12:55:36;2.90;99.90
70475;DHT22;57944;48.722;9.316;2023-01-28T12:58:17;2.90;99.90
70475;DHT22;57944;48.722;9.316;2023-01-28T13:00:55;2.90;99.90
70475;DHT22;57944;48.722;9.316;2023-01-28T13:03:35;2.90;99.90
70475;DHT22;57944;48.722;9.316;2023-01-28T13:06:16;2.80;99.90
70475;DHT22;57944;48.722;9.316;2023-01-28T13:08:58;2.60;99.90
70475;DHT22;57944;48.722;9.316;2023-01-28T13:11:33;2.60;99.90
70475;DHT22;57944;48.722;9.316;2023-01-28T13:14:09;2.60;99.90
70475;DHT22;57944;48.722;9.316;2023-01-28T13:16:42;2.60;99.90
70475;DHT22;57944;48.722;9.316;2023-01-28T13:19:22;2.70;99.90
70475;DHT22;57944;48.722;9.316;2023-01-28T13:22:27;2.60;99.90
70475;DHT22;57944;48.722;9.316;2023-01-28T13:25:18;2.60;99.90
70475;DHT22;57944;48.722;9.316;2023-01-28T13:27:59;2.60;99.90
70475;DHT22;57944;48.722;9.316;2023-01-28T13:30:45;2.60;99.90
70475;DHT22;57944;48.722;9.316;2023-01-28T13:33:29;2.70;99.90
70475;DHT22;57944;48.722;9.316;2023-01-28T13:36:04;2.70;99.90
70475;DHT22;57944;48.722;9.316;2023-01-28T13:38:46;2.80;99.90
70475;DHT22;57944;48.722;9.316;2023-01-28T13:41:17;3.00;99.90
70475;DHT22;57944;48.722;9.316;2023-01-28T13:43:48;3.40;99.90
70475;DHT22;57944;48.722;9.316;2023-01-28T13:46:29;3.70;99.90
70475;DHT22;57944;48.722;9.316;2023-01-28T13:49:00;4.00;99.90
70475;DHT22;57944;48.722;9.316;2023-01-28T13:51:33;4.10;99.90
70475;DHT22;57944;48.722;9.316;2023-01-28T13:54:11;4.20;99.90
70475;DHT22;57944;48.722;9.316;2023-01-28T13:57:00;4.40;99.90
70475;DHT22;57944;48.722;9.316;2023-01-28T13:59:48;4.60;99.90
70475;DHT22;57944;48.722;9.316;2023-01-28T14:02:43;3.80;99.90
70475;DHT22;57944;48.722;9.316;2023-01-28T14:05:56;3.70;99.90
70475;DHT22;57944;48.722;9.316;2023-01-28T14:09:06;3.60;99.90
70475;DHT22;57944;48.722;9.316;2023-01-28T14:18:18;2.80;99.90
70475;DHT22;57944;48.722;9.316;2023-01-28T14:20:59;2.50;99.90
70475;DHT22;57944;48.722;9.316;2023-01-28T14:23:35;2.50;99.90
70475;DHT22;57944;48.722;9.316;2023-01-28T14:26:35;2.30;99.90
70475;DHT22;57944;48.722;9.316;2023-01-28T14:29:32;2.30;99.90
70475;DHT22;57944;48.722;9.316;2023-01-28T14:32:15;2.40;99.90
70475;DHT22;57944;48.722;9.316;2023-01-28T14:34:50;2.40;99.90
70475;DHT22;57944;48.722;9.316;2023-01-28T14:37:24;2.40;99.90
70475;DHT22;57944;48.722;9.316;2023-01-28T14:40:00;2.40;99.90
70475;DHT22;57944;48.722;9.316;2023-01-28T14:42:37;2.40;99.90
70475;DHT22;57944;48.722;9.316;2023-01-28T14:45:22;2.50;99.90
70475;DHT22;57944;48.722;9.316;2023-01-28T14:48:13;2.60;99.90
70475;DHT22;57944;48.722;9.316;2023-01-28T14:51:13;2.50;99.90
70475;DHT22;57944;48.722;9.316;2023-01-28T14:54:29;2.40;99.90
70475;DHT22;57944;48.722;9.316;2023-01-28T14:57:18;2.20;99.90
70475;DHT22;57944;48.722;9.316;2023-01-28T14:59:57;2.00;99.90
70475;DHT22;57944;48.722;9.316;2023-01-28T15:02:30;2.00;99.90
70475;DHT22;57944;48.722;9.316;2023-01-28T15:05:09;2.00;99.90
70475;DHT22;57944;48.722;9.316;2023-01-28T15:07:47;2.00;99.90
70475;DHT22;57944;48.722;9.316;2023-01-28T15:10:20;1.90;99.90
70475;DHT22;57944;48.722;9.316;2023-01-28T15:12:57;2.00;99.90
70475;DHT22;57944;48.722;9.316;2023-01-28T15:15:35;2.10;99.90
70475;DHT22;57944;48.722;9.316;2023-01-28T15:18:14;2.10;99.90
70475;DHT22;57944;48.722;9.316;2023-01-28T15:20:50;2.10;99.90
70475;DHT22;57944;48.722;9.316;2023-01-28T15:23:28;2.20;99.90
70475;DHT22;57944;48.722;9.316;2023-01-28T15:26:04;2.30;99.90
70475;DHT22;57944;48.722;9.316;2023-01-28T15:28:38;2.20;99.90
70475;DHT22;57944;48.722;9.316;2023-01-28T15:31:18;2.20;99.90
70475;DHT22;57944;48.722;9.316;2023-01-28T15:34:02;2.30;99.90
70475;DHT22;57944;48.722;9.316;2023-01-28T15:36:39;2.10;99.90
70475;DHT22;57944;48.722;9.316;2023-01-28T15:39:16;2.20;99.90
70475;DHT22;57944;48.722;9.316;2023-01-28T15:41:49;2.20;99.90
70475;DHT22;57944;48.722;9.316;2023-01-28T15:44:27;2.30;99.90
70475;DHT22;57944;48.722;9.316;2023-01-28T15:47:01;2.30;99.90
70475;DHT22;57944;48.722;9.316;2023-01-28T15:49:36;2.30;99.90
70475;DHT22;57944;48.722;9.316;2023-01-28T15:52:12;2.20;99.90
70475;DHT22;57944;48.722;9.316;2023-01-28T15:54:48;2.20;99.90
70475;DHT22;57944;48.722;9.316;2023-01-28T15:57:24;2.20;99.90
70475;DHT22;57944;48.722;9.316;2023-01-28T16:00:10;2.20;99.90
70475;DHT22;57944;48.722;9.316;2023-01-28T16:02:44;2.20;99.90
70475;DHT22;57944;48.722;9.316;2023-01-28T16:05:26;2.20;99.90
70475;DHT22;57944;48.722;9.316;2023-01-28T16:08:02;2.10;99.90
70475;DHT22;57944;48.722;9.316;2023-01-28T16:10:41;2.00;99.90
70475;DHT22;57944;48.722;9.316;2023-01-28T16:13:17;1.80;99.90
70475;DHT22;57944;48.722;9.316;2023-01-28T16:15:52;1.90;99.90
70475;DHT22;57944;48.722;9.316;2023-01-28T16:18:29;1.80;99.90
70475;DHT22;57944;48.722;9.316;2023-01-28T16:21:08;1.70;99.90
70475;DHT22;57944;48.722;9.316;2023-01-28T16:23:49;1.70;99.90
70475;DHT22;57944;48.722;9.316;2023-01-28T16:26:25;1.60;99.90
70475;DHT22;57944;48.722;9.316;2023-01-28T16:28:56;1.70;99.90
70475;DHT22;57944;48.722;9.316;2023-01-28T16:31:28;1.70;99.90
70475;DHT22;57944;48.722;9.316;2023-01-28T16:33:58;1.60;99.90
70475;DHT22;57944;48.722;9.316;2023-01-28T16:36:28;1.70;99.90
70475;DHT22;57944;48.722;9.316;2023-01-28T16:38:59;1.70;99.90
70475;DHT22;57944;48.722;9.316;2023-01-28T16:41:33;1.70;99.90
70475;DHT22;57944;48.722;9.316;2023-01-28T16:44:12;1.60;99.90
70475;DHT22;57944;48.722;9.316;2023-01-28T16:46:43;1.50;99.90
70475;DHT22;57944;48.722;9.316;2023-01-28T16:49:13;1.60;99.90
70475;DHT22;57944;48.722;9.316;2023-01-28T16:51:43;1.50;99.90
70475;DHT22;57944;48.722;9.316;2023-01-28T16:54:15;1.50;99.90
70475;DHT22;57944;48.722;9.316;2023-01-28T16:56:48;1.50;99.90
70475;DHT22;57944;48.722;9.316;2023-01-28T16:59:19;1.50;99.90
70475;DHT22;57944;48.722;9.316;2023-01-28T17:01:50;1.50;99.90
70475;DHT22;57944;48.722;9.316;2023-01-28T17:04:20;1.50;99.90